createdAt,value
2018-10-11T00:02:20.247Z,41.90
2018-10-11T00:04:47.545Z,43.23
2018-10-11T00:07:14.674Z,41.63
2018-10-11T00:09:41.797Z,41.60
2018-10-11T00:12:09.056Z,42.40
2018-10-11T00:14:36.309Z,44.77
2018-10-11T00:17:03.512Z,42.03
2018-10-11T00:19:30.672Z,43.00
2018-10-11T00:21:57.924Z,42.97
2018-10-11T00:24:25.027Z,40.80
2018-10-11T00:26:52.328Z,42.67
2018-10-11T00:29:19.361Z,40.23
2018-10-11T00:31:46.468Z,40.50
2018-10-11T00:34:14.100Z,41.90
2018-10-11T00:36:41.256Z,43.00
2018-10-11T00:39:08.589Z,43.60
2018-10-11T00:41:35.888Z,42.10
2018-10-11T00:44:03.342Z,42.90
2018-10-11T00:46:30.384Z,41.77
2018-10-11T00:48:57.448Z,42.67
2018-10-11T00:51:25.764Z,42.87
2018-10-11T00:53:52.788Z,40.47
2018-10-11T00:56:20.156Z,43.00
2018-10-11T00:58:47.263Z,41.67
2018-10-11T01:01:14.291Z,40.77
2018-10-11T01:03:41.644Z,42.33
2018-10-11T01:06:09.284Z,41.50
2018-10-11T01:08:36.352Z,41.90
2018-10-11T01:11:04.072Z,42.57
2018-10-11T01:13:31.152Z,42.83
2018-10-11T01:15:58.183Z,43.33
2018-10-11T01:18:25.567Z,42.27
2018-10-11T01:20:52.702Z,43.57
2018-10-11T01:23:19.787Z,43.40
2018-10-11T01:25:47.297Z,43.17
2018-10-11T01:28:14.387Z,43.33
2018-10-11T01:30:46.084Z,43.47
2018-10-11T01:33:13.141Z,44.43
2018-10-11T01:35:40.159Z,43.20
2018-10-11T01:38:07.261Z,42.20
2018-10-11T01:40:34.319Z,41.97
2018-10-11T01:43:03.390Z,42.50
2018-10-11T01:45:30.474Z,43.70
2018-10-11T01:47:58.092Z,43.43
2018-10-11T01:50:25.100Z,40.27
2018-10-11T01:52:52.135Z,40.60
2018-10-11T01:55:19.532Z,39.40
2018-10-11T01:57:46.679Z,40.00
2018-10-11T02:00:13.715Z,40.40
2018-10-11T02:02:40.747Z,41.03
2018-10-11T02:05:08.060Z,42.57
2018-10-11T02:07:35.139Z,42.83
2018-10-11T02:10:02.204Z,42.60
2018-10-11T02:12:29.249Z,44.67
2018-10-11T02:14:56.288Z,42.47
2018-10-11T02:17:23.576Z,42.80
2018-10-11T02:19:50.620Z,42.10
2018-10-11T02:22:17.649Z,41.90
2018-10-11T02:24:44.711Z,42.47
2018-10-11T02:27:11.738Z,41.97
2018-10-11T02:29:38.972Z,42.50
2018-10-11T02:32:06.174Z,41.57
2018-10-11T02:34:33.152Z,43.10
2018-10-11T02:37:00.239Z,43.77
2018-10-11T02:39:27.317Z,43.93
2018-10-11T02:41:54.356Z,42.57
2018-10-11T02:44:21.388Z,45.13
2018-10-11T02:46:48.447Z,43.60
2018-10-11T02:49:15.503Z,44.70
2018-10-11T02:51:42.627Z,44.80
2018-10-11T02:54:09.896Z,45.23
2018-10-11T02:56:36.936Z,45.30
2018-10-11T02:59:09.812Z,44.90
2018-10-11T03:01:36.836Z,45.77
2018-10-11T03:04:04.614Z,45.37
2018-10-11T03:06:34.777Z,44.20
2018-10-11T03:09:01.829Z,44.33
2018-10-11T03:11:28.848Z,43.73
2018-10-11T03:13:56.199Z,44.67
2018-10-11T03:16:23.219Z,44.50
2018-10-11T03:18:50.256Z,43.43
2018-10-11T03:21:17.328Z,44.57
2018-10-11T03:23:44.352Z,45.97
2018-10-11T03:26:11.384Z,43.20
2018-10-11T03:28:38.869Z,44.20
2018-10-11T03:31:06.189Z,45.00
2018-10-11T03:33:33.221Z,43.80
2018-10-11T03:36:00.268Z,43.80
2018-10-11T03:38:27.283Z,45.10
2018-10-11T03:40:54.301Z,44.53
2018-10-11T03:45:55.431Z,44.10
2018-10-11T03:48:22.780Z,42.57
2018-10-11T03:50:49.896Z,41.10
2018-10-11T03:53:16.919Z,42.53
2018-10-11T03:55:44.248Z,42.87
2018-10-11T03:58:11.352Z,43.10
2018-10-11T04:00:38.376Z,43.60
2018-10-11T04:03:05.404Z,44.67
2018-10-11T04:05:32.437Z,43.33
2018-10-11T04:07:59.468Z,41.80
2018-10-11T04:10:26.775Z,44.47
2018-10-11T04:12:53.826Z,43.87
2018-10-11T04:15:20.893Z,44.30
2018-10-11T04:17:48.375Z,44.73
2018-10-11T04:20:15.406Z,45.60
2018-10-11T04:22:42.454Z,43.60
2018-10-11T04:25:09.779Z,45.27
2018-10-11T04:27:36.791Z,44.47
2018-10-11T04:30:04.007Z,43.03
2018-10-11T04:32:31.639Z,43.43
2018-10-11T04:34:58.648Z,42.40
2018-10-11T04:37:26.488Z,42.50
2018-10-11T04:39:53.855Z,43.60
2018-10-11T04:42:20.892Z,45.33
2018-10-11T04:44:48.011Z,43.67
2018-10-11T04:47:15.407Z,43.70
2018-10-11T04:49:42.427Z,40.60
2018-10-11T04:52:09.439Z,42.70
2018-10-11T04:54:36.467Z,41.40
2018-10-11T04:57:03.487Z,40.83
2018-10-11T04:59:30.517Z,41.77
2018-10-11T05:01:57.804Z,40.30
2018-10-11T05:04:24.919Z,40.97
2018-10-11T05:06:51.936Z,40.90
2018-10-11T05:09:19.249Z,40.57
2018-10-11T05:11:46.267Z,40.77
2018-10-11T05:14:14.075Z,41.07
2018-10-11T05:16:41.199Z,42.83
2018-10-11T05:19:08.212Z,41.50
2018-10-11T05:21:35.293Z,43.50
2018-10-11T05:24:02.271Z,40.70
2018-10-11T05:26:29.380Z,43.17
2018-10-11T05:28:56.419Z,42.00
2018-10-11T05:31:23.679Z,40.70
2018-10-11T05:33:51.464Z,43.03
2018-10-11T05:36:18.486Z,40.63
2018-10-11T05:38:45.544Z,39.03
2018-10-11T05:41:12.731Z,41.00
2018-10-11T05:43:39.920Z,38.77
2018-10-11T05:46:10.448Z,39.40
2018-10-11T05:48:37.476Z,40.77
2018-10-11T05:51:04.556Z,39.13
2018-10-11T05:53:31.843Z,40.47
2018-10-11T05:55:58.891Z,41.53
2018-10-11T05:58:26.569Z,41.27
2018-10-11T06:00:53.607Z,41.17
2018-10-11T06:03:20.640Z,39.43
2018-10-11T06:05:47.667Z,41.10
2018-10-11T06:08:15.889Z,39.13
2018-10-11T06:10:43.551Z,41.73
2018-10-11T06:13:10.788Z,38.97
2018-10-11T06:15:38.252Z,39.67
2018-10-11T06:18:05.300Z,35.23
2018-10-11T06:20:32.403Z,40.03
2018-10-11T06:22:59.700Z,39.80
2018-10-11T06:25:26.736Z,41.67
2018-10-11T06:27:53.758Z,39.40
2018-10-11T06:30:21.231Z,37.20
2018-10-11T06:32:48.209Z,38.43
2018-10-11T06:35:15.240Z,38.00
2018-10-11T06:37:42.624Z,37.90
2018-10-11T06:40:09.663Z,37.07
2018-10-11T06:42:36.866Z,37.47
2018-10-11T06:45:04.220Z,37.13
2018-10-11T06:47:31.244Z,36.00
2018-10-11T06:49:59.274Z,36.60
2018-10-11T06:52:26.528Z,37.87
2018-10-11T06:54:53.572Z,36.63
2018-10-11T06:57:20.611Z,35.40
2018-10-11T06:59:47.736Z,35.93
2018-10-11T07:02:14.752Z,35.37
2018-10-11T07:04:41.777Z,34.00
2018-10-11T07:07:08.934Z,32.97
2018-10-11T07:09:35.944Z,36.37
2018-10-11T07:12:02.981Z,35.07
2018-10-11T07:14:30.050Z,32.70
2018-10-11T07:16:57.100Z,34.90
2018-10-11T07:19:24.232Z,30.30
2018-10-11T07:21:51.232Z,31.67
2018-10-11T07:24:18.284Z,31.53
2018-10-11T07:26:45.386Z,31.80
2018-10-11T07:29:12.760Z,28.60
2018-10-11T07:31:39.804Z,30.20
2018-10-11T07:34:06.868Z,29.00
2018-10-11T07:36:33.919Z,29.93
2018-10-11T07:39:00.961Z,29.27
2018-10-11T07:41:28.037Z,29.07
2018-10-11T07:43:55.252Z,27.97
2018-10-11T07:46:22.279Z,28.70
2018-10-11T07:48:49.337Z,28.07
2018-10-11T07:51:16.707Z,28.50
2018-10-11T07:53:43.758Z,27.87
2018-10-11T07:56:10.832Z,28.10
2018-10-11T07:58:37.924Z,28.10
2018-10-11T08:01:05.037Z,25.90
2018-10-11T08:03:32.139Z,25.20
2018-10-11T08:05:59.407Z,26.77
2018-10-11T08:08:26.464Z,24.60
2018-10-11T08:10:54.797Z,26.83
2018-10-11T08:13:22.777Z,25.37
2018-10-11T08:15:49.821Z,26.57
2018-10-11T08:18:16.861Z,24.83
2018-10-11T08:20:44.247Z,25.73
2018-10-11T08:23:11.364Z,23.70
2018-10-11T08:25:38.838Z,25.20
2018-10-11T08:28:05.569Z,24.40
2018-10-11T08:30:32.628Z,25.47
2018-10-11T08:32:59.804Z,23.10
2018-10-11T08:35:26.824Z,23.10
2018-10-11T08:37:54.007Z,23.27
2018-10-11T08:40:20.916Z,23.50
2018-10-11T08:42:48.264Z,23.93
2018-10-11T08:45:15.411Z,23.20
2018-10-11T08:47:42.600Z,25.00
2018-10-11T08:50:09.983Z,21.20
2018-10-11T08:52:37.008Z,24.53
2018-10-11T08:55:04.051Z,23.73
2018-10-11T08:57:31.152Z,23.83
2018-10-11T08:59:58.185Z,23.00
2018-10-11T09:02:25.255Z,21.60
2018-10-11T09:04:52.564Z,21.90
2018-10-11T09:07:19.652Z,22.63
2018-10-11T09:09:53.438Z,21.73
2018-10-11T09:12:14.443Z,21.57
2018-10-11T09:14:41.569Z,22.20
2018-10-11T09:17:08.612Z,21.33
2018-10-11T09:19:35.647Z,22.43
2018-10-11T09:22:02.819Z,22.33
2018-10-11T09:24:30.191Z,21.63
2018-10-11T09:26:57.265Z,21.10
2018-10-11T09:29:24.307Z,20.70
2018-10-11T09:31:51.384Z,20.90
2018-10-11T09:34:18.686Z,19.60
2018-10-11T09:36:45.876Z,20.20
2018-10-11T09:39:12.944Z,19.90
2018-10-11T09:41:40.003Z,20.63
2018-10-11T09:44:07.368Z,19.10
2018-10-11T09:46:34.412Z,18.70
2018-10-11T09:49:02.077Z,17.93
2018-10-11T09:51:29.118Z,18.03
2018-10-11T09:53:56.173Z,19.30
2018-10-11T09:56:26.222Z,18.63
2018-10-11T09:58:53.248Z,18.17
2018-10-11T10:01:26.355Z,19.43
2018-10-11T10:03:53.435Z,19.00
2018-10-11T10:06:20.528Z,18.43
2018-10-11T10:08:47.836Z,19.63
2018-10-11T10:11:14.872Z,18.77
2018-10-11T10:13:41.912Z,18.60
2018-10-11T10:16:08.974Z,19.30
2018-10-11T10:18:36.370Z,17.53
2018-10-11T10:21:03.468Z,18.60
2018-10-11T10:23:30.485Z,17.43
2018-10-11T10:25:57.507Z,17.80
2018-10-11T10:28:24.536Z,17.63
2018-10-11T10:30:53.128Z,17.60
2018-10-11T10:33:21.248Z,17.53
2018-10-11T10:35:48.581Z,18.83
2018-10-11T10:38:16.274Z,18.90
2018-10-11T10:40:43.295Z,18.00
2018-10-11T10:43:10.311Z,17.40
2018-10-11T10:45:37.385Z,18.17
2018-10-11T10:48:04.480Z,18.03
2018-10-11T10:50:31.491Z,18.23
2018-10-11T10:52:59.357Z,19.33
2018-10-11T10:55:26.377Z,17.87
2018-10-11T10:57:53.419Z,20.30
2018-10-11T11:00:20.563Z,15.63
2018-10-11T11:02:47.592Z,17.00
2018-10-11T11:05:14.664Z,17.50
2018-10-11T11:07:42.135Z,18.07
2018-10-11T11:10:09.175Z,18.80
2018-10-11T11:12:36.266Z,18.20
2018-10-11T11:15:03.688Z,20.30
2018-10-11T11:17:30.749Z,18.63
2018-10-11T11:19:57.800Z,17.60
2018-10-11T11:22:24.914Z,17.53
2018-10-11T11:24:51.999Z,17.93
2018-10-11T11:27:19.116Z,17.43
2018-10-11T11:29:46.267Z,18.53
2018-10-11T11:32:13.305Z,16.83
2018-10-11T11:34:40.448Z,17.37
2018-10-11T11:37:07.735Z,17.50
2018-10-11T11:39:34.783Z,16.60
2018-10-11T11:42:01.829Z,17.07
2018-10-11T11:44:29.057Z,17.07
2018-10-11T11:46:56.404Z,17.33
2018-10-11T11:49:23.423Z,18.60
2018-10-11T11:51:50.735Z,18.20
2018-10-11T11:54:18.723Z,19.10
2018-10-11T11:56:45.748Z,16.67
2018-10-11T11:59:12.851Z,17.00
2018-10-11T12:01:39.876Z,17.90
2018-10-11T12:04:06.935Z,18.23
2018-10-11T12:06:34.287Z,16.87
2018-10-11T12:09:01.316Z,17.57
2018-10-11T12:11:28.337Z,16.97
2018-10-11T12:13:55.411Z,17.83
2018-10-11T12:16:22.505Z,17.07
2018-10-11T12:18:49.535Z,17.80
2018-10-11T12:21:16.852Z,17.53
2018-10-11T12:23:43.908Z,16.40
2018-10-11T12:26:11.029Z,18.20
2018-10-11T12:28:38.217Z,17.30
2018-10-11T12:31:05.347Z,16.13
2018-10-11T12:33:32.483Z,17.03
2018-10-11T12:35:59.848Z,17.43
2018-10-11T12:38:26.894Z,16.53
2018-10-11T12:40:54.015Z,17.80
2018-10-11T12:43:21.347Z,17.30
2018-10-11T12:45:48.387Z,17.10
2018-10-11T12:48:15.420Z,17.20
2018-10-11T12:50:42.540Z,17.10
2018-10-11T12:53:09.593Z,15.57
2018-10-11T12:55:36.635Z,15.60
2018-10-11T12:58:03.995Z,17.40
2018-10-11T13:00:31.166Z,17.47
2018-10-11T13:02:58.376Z,17.33
2018-10-11T13:05:25.399Z,17.00
2018-10-11T13:07:52.431Z,16.90
2018-10-11T13:10:19.456Z,17.23
2018-10-11T13:12:46.589Z,17.33
2018-10-11T13:15:13.624Z,15.80
2018-10-11T13:17:43.388Z,16.60
2018-10-11T13:20:07.992Z,17.33
2018-10-11T13:22:35.301Z,17.17
2018-10-11T13:25:03.118Z,15.70
2018-10-11T13:27:30.168Z,16.57
2018-10-11T13:29:57.216Z,16.40
2018-10-11T13:32:24.259Z,15.57
2018-10-11T13:34:51.698Z,16.60
2018-10-11T13:37:18.708Z,16.10
2018-10-11T13:39:50.534Z,18.10
2018-10-11T13:42:12.871Z,19.83
2018-10-11T13:44:39.905Z,20.83
2018-10-11T13:47:07.000Z,16.00
2018-10-11T13:49:34.028Z,16.00
2018-10-11T13:52:01.263Z,15.43
2018-10-11T13:54:28.283Z,16.40
2018-10-11T13:56:58.796Z,18.37
2018-10-11T13:59:22.389Z,13.73
2018-10-11T14:01:49.448Z,16.43
2018-10-11T14:04:16.511Z,15.47
2018-10-11T14:06:43.532Z,15.20
2018-10-11T14:09:11.880Z,16.30
2018-10-11T14:11:40.327Z,15.50
2018-10-11T14:14:07.435Z,16.13
2018-10-11T14:16:34.536Z,17.77
2018-10-11T14:19:02.101Z,18.17
2018-10-11T14:21:29.240Z,15.70
2018-10-11T14:23:56.667Z,16.53
2018-10-11T14:26:24.016Z,15.10
2018-10-11T14:28:51.540Z,14.80
2018-10-11T14:31:18.921Z,14.67
2018-10-11T14:33:46.044Z,16.17
2018-10-11T14:36:13.831Z,15.10
2018-10-11T14:38:40.840Z,14.90
2018-10-11T14:41:08.551Z,14.10
2018-10-11T14:43:35.712Z,15.10
2018-10-11T14:46:02.761Z,14.50
2018-10-11T14:48:29.975Z,14.90
2018-10-11T14:50:57.044Z,14.80
2018-10-11T14:53:24.035Z,14.00
2018-10-11T14:55:51.599Z,15.53
2018-10-11T14:58:18.627Z,13.87
2018-10-11T15:00:45.782Z,15.40
2018-10-11T15:03:12.889Z,14.90
2018-10-11T15:05:39.960Z,14.33
2018-10-11T15:08:07.016Z,15.60
2018-10-11T15:10:34.546Z,17.27
2018-10-11T15:13:01.440Z,15.67
2018-10-11T15:15:28.564Z,15.03
2018-10-11T15:17:56.015Z,15.47
2018-10-11T15:20:23.004Z,15.03
2018-10-11T15:22:50.032Z,14.43
2018-10-11T15:25:19.568Z,17.17
2018-10-11T15:27:47.308Z,14.90
2018-10-11T15:30:15.455Z,15.70
2018-10-11T15:32:42.564Z,15.20
2018-10-11T15:35:09.592Z,16.07
2018-10-11T15:37:36.691Z,15.17
2018-10-11T15:40:04.195Z,15.13
2018-10-11T15:42:31.426Z,15.50
2018-10-11T15:44:58.471Z,16.10
2018-10-11T15:47:25.511Z,15.97
2018-10-11T15:49:52.569Z,17.30
2018-10-11T15:52:19.649Z,17.77
2018-10-11T15:54:47.010Z,16.63
2018-10-11T15:57:14.113Z,16.60
2018-10-11T15:59:41.388Z,15.83
2018-10-11T16:02:08.904Z,16.10
2018-10-11T16:04:35.928Z,15.63
2018-10-11T16:07:02.955Z,16.50
2018-10-11T16:09:30.090Z,15.10
2018-10-11T16:11:57.104Z,17.40
2018-10-11T16:14:24.219Z,18.67
2018-10-11T16:16:51.592Z,17.93
2018-10-11T16:19:18.633Z,18.70
2018-10-11T16:21:52.774Z,18.80
2018-10-11T16:24:19.840Z,17.93
2018-10-11T16:26:46.861Z,21.10
2018-10-11T16:29:13.908Z,21.70
2018-10-11T16:31:40.927Z,21.03
2018-10-11T16:34:08.067Z,20.87
2018-10-11T16:36:35.143Z,19.60
2018-10-11T16:39:02.294Z,19.73
2018-10-11T16:41:29.313Z,22.27
2018-10-11T16:43:56.770Z,20.17
2018-10-11T16:46:23.796Z,19.57
2018-10-11T16:48:50.827Z,19.57
2018-10-11T16:51:17.968Z,18.87
2018-10-11T16:53:45.039Z,22.93
2018-10-11T16:56:12.063Z,21.10
2018-10-11T16:58:39.335Z,22.87
2018-10-11T17:01:06.608Z,22.70
2018-10-11T17:03:33.646Z,25.50
2018-10-11T17:06:00.988Z,21.27
2018-10-11T17:08:28.115Z,21.70
2018-10-11T17:10:55.275Z,22.97
2018-10-11T17:13:22.439Z,24.23
2018-10-11T17:15:49.567Z,22.07
2018-10-11T17:18:16.596Z,24.53
2018-10-11T17:20:43.684Z,26.70
2018-10-11T17:23:10.804Z,24.73
2018-10-11T17:25:37.872Z,24.50
2018-10-11T17:28:05.258Z,27.87
2018-10-11T17:30:32.296Z,26.90
2018-10-11T17:32:59.360Z,24.07
2018-10-11T17:35:26.804Z,31.93
2018-10-11T17:37:53.911Z,20.97
2018-10-11T17:40:21.041Z,22.47
2018-10-11T17:42:48.099Z,21.90
2018-10-11T17:45:15.127Z,25.83
2018-10-11T17:47:42.184Z,25.63
2018-10-11T17:50:09.525Z,23.93
2018-10-11T17:52:36.647Z,23.67
2018-10-11T17:55:03.663Z,24.40
2018-10-11T17:57:30.725Z,25.50
2018-10-11T17:59:57.905Z,25.40
2018-10-11T18:02:24.937Z,27.40
2018-10-11T18:04:52.856Z,28.20
2018-10-11T18:07:19.936Z,28.60
2018-10-11T18:09:47.360Z,24.23
2018-10-11T18:12:14.416Z,25.50
2018-10-11T18:14:41.514Z,27.03
2018-10-11T18:17:08.536Z,22.23
2018-10-11T18:19:35.819Z,24.93
2018-10-11T18:22:02.916Z,25.60
2018-10-11T18:24:30.037Z,27.90
2018-10-11T18:26:57.201Z,24.97
2018-10-11T18:29:24.272Z,25.43
2018-10-11T18:31:51.492Z,25.10
2018-10-11T18:34:18.667Z,24.53
2018-10-11T18:36:45.772Z,24.10
2018-10-11T18:39:14.263Z,26.70
2018-10-11T18:41:41.776Z,30.20
2018-10-11T18:44:09.459Z,26.60
2018-10-11T18:46:36.575Z,29.80
2018-10-11T18:49:04.182Z,26.00
2018-10-11T18:51:31.221Z,24.90
2018-10-11T18:53:58.361Z,25.30
2018-10-11T18:56:25.795Z,31.27
2018-10-11T18:58:53.353Z,26.13
2018-10-11T19:01:21.262Z,26.93
2018-10-11T19:03:48.593Z,24.97
2018-10-11T19:06:16.071Z,24.90
2018-10-11T19:08:43.266Z,26.97
2018-10-11T19:11:10.557Z,24.50
2018-10-11T19:13:37.720Z,27.57
2018-10-11T19:16:04.760Z,28.83
2018-10-11T19:18:32.137Z,26.30
2018-10-11T19:20:59.322Z,27.80
2018-10-11T19:23:26.869Z,26.67
2018-10-11T19:25:54.336Z,25.17
2018-10-11T19:28:21.361Z,27.97
2018-10-11T19:30:48.482Z,27.50
2018-10-11T19:33:15.500Z,25.40
2018-10-11T19:35:42.537Z,22.60
2018-10-11T19:38:09.769Z,25.00
2018-10-11T19:40:36.985Z,22.07
2018-10-11T19:43:04.197Z,22.93
2018-10-11T19:45:31.354Z,20.10
2018-10-11T19:47:58.472Z,25.20
2018-10-11T19:50:25.986Z,20.00
2018-10-11T19:52:53.100Z,22.63
2018-10-11T19:55:20.421Z,21.40
2018-10-11T19:57:47.568Z,20.30
2018-10-11T20:00:14.655Z,20.57
2018-10-11T20:02:42.214Z,20.87
2018-10-11T20:05:09.244Z,20.20
2018-10-11T20:07:36.312Z,19.80
2018-10-11T20:10:03.468Z,21.40
2018-10-11T20:12:30.593Z,20.17
2018-10-11T20:14:57.879Z,20.40
2018-10-11T20:17:25.583Z,21.50
2018-10-11T20:19:52.588Z,18.87
2018-10-11T20:22:19.668Z,20.00
2018-10-11T20:24:46.702Z,20.30
2018-10-11T20:27:13.803Z,23.13
2018-10-11T20:29:40.887Z,20.13
2018-10-11T20:32:08.956Z,20.70
2018-10-11T20:34:35.995Z,20.53
2018-10-11T20:37:03.072Z,18.90
2018-10-11T20:39:30.491Z,20.53
2018-10-11T20:41:57.511Z,19.10
2018-10-11T20:44:24.724Z,18.87
2018-10-11T20:46:51.916Z,18.50
2018-10-11T20:49:19.019Z,19.33
2018-10-11T20:51:46.133Z,19.27
2018-10-11T20:54:13.372Z,19.90
2018-10-11T20:56:40.477Z,18.97
2018-10-11T20:59:07.532Z,19.87
2018-10-11T21:01:34.900Z,18.83
2018-10-11T21:04:02.093Z,21.70
2018-10-11T21:06:29.302Z,23.27
2018-10-11T21:08:56.636Z,20.20
2018-10-11T21:11:23.861Z,23.80
2018-10-11T21:13:51.788Z,19.13
2018-10-11T21:16:18.909Z,19.73
2018-10-11T21:18:45.992Z,18.57
2018-10-11T21:21:13.351Z,20.20
2018-10-11T21:23:41.023Z,17.33
2018-10-11T21:26:08.088Z,19.70
2018-10-11T21:28:35.489Z,18.63
2018-10-11T21:31:02.864Z,18.77
2018-10-11T21:33:29.920Z,18.07
2018-10-11T21:35:56.945Z,17.80
2018-10-11T21:38:24.075Z,17.87
2018-10-11T21:40:51.118Z,17.80
2018-10-11T21:43:18.375Z,18.03
2018-10-11T21:45:45.407Z,17.83
2018-10-11T21:48:12.436Z,16.97
2018-10-11T21:50:39.491Z,17.67
2018-10-11T21:53:07.112Z,18.60
2018-10-11T21:55:34.217Z,18.70
2018-10-11T21:58:01.624Z,18.07
2018-10-11T22:00:34.785Z,17.30
2018-10-11T22:03:01.821Z,17.10
2018-10-11T22:05:29.054Z,19.10
2018-10-11T22:07:56.170Z,18.77
2018-10-11T22:10:23.385Z,18.07
2018-10-11T22:12:51.299Z,17.70
2018-10-11T22:15:18.720Z,18.30
2018-10-11T22:17:45.849Z,18.43
2018-10-11T22:20:13.037Z,18.90
2018-10-11T22:22:40.467Z,18.60
2018-10-11T22:25:07.662Z,17.97
2018-10-11T22:27:34.752Z,18.10
2018-10-11T22:30:02.007Z,19.03
2018-10-11T22:32:29.148Z,18.13
2018-10-11T22:34:56.179Z,18.37
2018-10-11T22:37:23.491Z,17.50
2018-10-11T22:39:50.580Z,17.20
2018-10-11T22:42:17.640Z,17.70
2018-10-11T22:44:45.040Z,17.70
2018-10-11T22:47:12.189Z,17.70
2018-10-11T22:49:39.397Z,17.50
2018-10-11T22:52:07.004Z,17.33
2018-10-11T22:54:34.061Z,18.20
2018-10-11T22:57:01.224Z,17.40
2018-10-11T22:59:28.394Z,18.00
2018-10-11T23:01:55.483Z,18.20
2018-10-11T23:04:22.700Z,17.60
2018-10-11T23:06:50.018Z,17.20
2018-10-11T23:09:17.264Z,17.10
2018-10-11T23:11:44.421Z,17.23
2018-10-11T23:14:11.931Z,17.20
2018-10-11T23:16:39.335Z,17.23
2018-10-11T23:19:06.589Z,17.13
2018-10-11T23:21:33.736Z,16.20
2018-10-11T23:24:01.161Z,17.70
2018-10-11T23:26:28.307Z,17.40
2018-10-11T23:28:55.519Z,16.80
2018-10-11T23:31:24.752Z,18.43
2018-10-11T23:33:52.680Z,17.00
2018-10-11T23:36:20.954Z,18.50
2018-10-11T23:38:48.081Z,17.90
2018-10-11T23:41:15.193Z,17.90
2018-10-11T23:43:42.413Z,17.50
2018-10-11T23:46:09.517Z,18.77
2018-10-11T23:48:36.707Z,17.50
2018-10-11T23:51:04.040Z,17.07
2018-10-11T23:53:31.092Z,18.50
2018-10-11T23:55:58.256Z,18.13
2018-10-11T23:58:25.351Z,18.20
